Aliso Viejo, California
Current Conditions -  °F | °C
As of 10:53 PM on Wednesday 22 Oct 2014 (Local Time) from KSNA Reporting Station
Clear Clear  
Wind Chill: 71°   Ceiling: Unl
Heat Index: 71°   Visibility: 7mi
Dew Point: 63°   Wind: 0mph
Humidity: 75%   Direction: NA
Pressure: 29.96"   Gusts: NA
Location:  33.57°N, 117.72°W
Report Text: KSNA 230553Z 00000KT 7SM CLR 22/17 A2996 RMK AO2 SLP143 T02170172 10256 20217 51010
Loading
Personal Weather Stations






























Interactive Weather Map New forecast layout! Learn more

10-Day Weather Forecast

Advertisements
Track Severe Weather on mobile